Flight Track Log - Related Links

Times and Time Zones

All times are in EDT time to prevent confusion due to time zone crossing. See the IMG736 flight status page for this flight to view local times or setup timezone preferences in your user account.

Time Position Orientation Groundspeed Altitude Reporting Facility
EDT Latitude Longitude Course Direction KTS MPH feet Rate Location/Type
Sun 06:21:08 PM 30.3517 -85.7378 19° North 155 178 1,800  Level Jacksonville Center
Sun 06:22:08 PM 30.3483 -85.6944 95° East 141 162 2,600 750 Climbing Jacksonville Center
Sun 06:23:00 PM 30.5886 -85.7014 19° North  Level Estimated
Sun 06:23:08 PM 30.3131 -85.6933 178° South 100 115 3,300  Level Jacksonville Center
Sun 06:24:08 PM 30.2775 -85.6947 182° South 107 123 4,000 750 Climbing Jacksonville Center
Sun 06:25:08 PM 30.2419 -85.6936 178° South 128 147 4,800 750 Climbing Jacksonville Center
Sun 06:26:08 PM 30.2456 -85.7275 277° West 92 106 5,500 650 Climbing Jacksonville Center
Sun 06:27:08 PM 30.2853 -85.7189 11° North 61 70 6,100 650 Climbing Jacksonville Center
Sun 06:28:08 PM 30.3208 -85.7128 North 96 110 6,800 650 Climbing Jacksonville Center
Sun 06:29:08 PM 30.3567 -85.7042 12° North 115 132 7,400 600 Climbing Jacksonville Center
Sun 06:30:08 PM 30.3944 -85.6981 North 127 146 8,000 600 Climbing Jacksonville Center
Sun 06:31:08 PM 30.4300 -85.6919 North 127 146 8,600 500 Climbing Jacksonville Center
Sun 06:32:08 PM 30.4678 -85.6858 North 127 146 9,000 150 Climbing Jacksonville Center
Sun 06:33:08 PM 30.5136 -85.6872 359° North 139 160 8,900 -50 Descending Jacksonville Center
Sun 06:34:08 PM 30.5594 -85.6886 359° North 153 176 8,900  Level Jacksonville Center
Sun 06:34:46 PM 30.5906 -85.6942 351° North 167 192 8,900 100 Level Jacksonville Center
Sun 06:35:08 PM 30.6053 -85.6922 North 163 188 9,000  Climbing Jacksonville Center
Sun 06:35:59 PM 30.6469 -85.6958 356° North 167 192 8,900 -54 Descending Jacksonville Center
Sun 06:37:00 PM 30.6908 -85.6997 356° North 166 191 8,900  Level Jacksonville Center
Sun 06:38:06 PM 30.7408 -85.7011 359° North 161 185 8,900  Level Jacksonville Center
Sun 06:39:08 PM 30.7889 -85.6978 North 158 182 8,900 47 Level Jacksonville Center
Sun 06:40:14 PM 30.8369 -85.6919 North 156 180 9,000  Climbing Jacksonville Center
Sun 06:41:14 PM 30.8767 -85.6956 356° North 152 175 8,900  Descending Jacksonville Center
Sun 06:42:08 PM 30.9144 -85.6892 North 158 182 9,000 53 Climbing Jacksonville Center
Sun 06:43:08 PM 30.9583 -85.6783 12° North 158 182 9,000  Level Jacksonville Center
Sun 06:44:08 PM 31.0047 -85.6653 14° North 163 188 9,000  Level Jacksonville Center
Sun 06:46:11 PM 31.1011 -85.6464 10° North 165 190 9,000 -32 Level Jacksonville Center
Sun 06:47:18 PM 31.1494 -85.6356 11° North 167 192 8,900  Descending Jacksonville Center
Sun 06:48:19 PM 31.1956 -85.6272 North 167 192 9,000  Climbing Jacksonville Center
Sun 06:50:20 PM 31.2814 -85.6053 12° North 152 175 8,900 -33 Descending Jacksonville Center
Sun 06:51:20 PM 31.3275 -85.5969 North 160 184 8,900 50 Level Jacksonville Center
Sun 06:52:21 PM 31.3739 -85.5861 11° North 163 188 9,000 49 Climbing Jacksonville Center
Sun 06:53:22 PM 31.4158 -85.5778 10° North 162 186 9,000  Level Jacksonville Center
Sun 06:54:22 PM 31.4597 -85.5667 12° North 155 178 9,000  Level Jacksonville Center
Sun 06:55:23 PM 31.5039 -85.5583 North 161 185 9,000 -49 Level Jacksonville Center
Sun 06:56:24 PM 31.5500 -85.5475 11° North 168 193 8,900  Descending Jacksonville Center
Sun 06:57:24 PM 31.5961 -85.5389 North 167 192 9,000 50 Climbing Jacksonville Center
Sun 06:58:25 PM 31.6422 -85.5256 14° North 170 196 9,000  Level Jacksonville Center
Sun 06:59:58 PM 31.7167 -85.5167 North 171 197 9,000  Level Atlanta TRACON
Sun 07:00:58 PM 31.7667 -85.5000 16° North 168 193 9,000  Level Atlanta TRACON
Sun 07:01:58 PM 31.8167 -85.4833 16° North 173 199 9,000  Level Atlanta TRACON
Sun 07:02:52 PM 31.8500 -85.4833 360° North 172 198 9,000  Level Atlanta TRACON
Sun 07:03:52 PM 31.9000 -85.4667 16° North 170 196 9,000  Level Atlanta TRACON
Sun 07:04:52 PM 31.9500 -85.4667 360° North 170 196 9,000  Level Atlanta TRACON
Sun 07:05:52 PM 31.9833 -85.4500 23° Northeast 166 191 9,000  Level Atlanta TRACON
Sun 07:06:58 PM 32.0333 -85.4333 16° North 169 194 9,000  Level Atlanta TRACON
Sun 07:07:58 PM 32.0833 -85.4167 16° North 170 196 9,000  Level Atlanta TRACON
Sun 07:08:52 PM 32.1167 -85.3833 40° Northeast 170 196 9,000  Level Atlanta TRACON
Sun 07:09:58 PM 32.1667 -85.3667 16° North 171 197 9,000  Level Atlanta TRACON
Sun 07:10:58 PM 32.2167 -85.3333 29° Northeast 172 198 9,000  Level Atlanta TRACON
Sun 07:11:52 PM 32.2500 -85.3167 23° Northeast 169 194 9,000  Level Atlanta TRACON
Sun 07:12:52 PM 32.2833 -85.2833 40° Northeast 167 192 9,000  Level Atlanta TRACON
Sun 07:13:52 PM 32.3333 -85.2667 16° North 165 190 9,000  Level Atlanta TRACON
Sun 07:14:52 PM 32.3667 -85.2333 40° Northeast 167 192 9,000  Level Atlanta TRACON
Sun 07:15:52 PM 32.4167 -85.2000 29° Northeast 170 196 9,000  Level Atlanta TRACON
Sun 07:16:52 PM 32.4500 -85.1833 23° Northeast 172 198 9,000  Level Atlanta TRACON
Sun 07:17:52 PM 32.5000 -85.1500 29° Northeast 173 199 9,000  Level Atlanta TRACON
Sun 07:18:52 PM 32.5333 -85.1333 23° Northeast 172 198 9,000  Level Atlanta TRACON
Sun 07:19:58 PM 32.5833 -85.1000 29° Northeast 173 199 9,000  Level Atlanta TRACON
Sun 07:20:58 PM 32.6167 -85.0667 40° Northeast 173 199 9,000  Level Atlanta TRACON
Sun 07:21:58 PM 32.6667 -85.0500 16° North 174 200 9,000  Level Atlanta TRACON
Sun 07:22:52 PM 32.7000 -85.0333 23° Northeast 172 198 9,000  Level Atlanta TRACON
Sun 07:23:52 PM 32.7500 -85.0000 29° Northeast 172 198 9,000 -100 Level Atlanta TRACON
Sun 07:24:52 PM 32.7833 -84.9667 40° Northeast 175 201 8,800 -300 Descending Atlanta TRACON
Sun 07:25:52 PM 32.8333 -84.9500 16° North 187 215 8,400 -450 Descending Atlanta TRACON
Sun 07:26:52 PM 32.8833 -84.9167 29° Northeast 189 217 7,900 -476 Descending Atlanta TRACON
Sun 07:27:58 PM 32.9333 -84.8667 40° Northeast 192 221 7,400 -476 Descending Atlanta TRACON
Sun 07:28:58 PM 32.9667 -84.8333 40° Northeast 189 217 6,900 -500 Descending Atlanta TRACON
Sun 07:29:58 PM 33.0000 -84.8000 40° Northeast 186 214 6,400 -500 Descending Atlanta TRACON
Sun 07:30:58 PM 33.0500 -84.7500 40° Northeast 185 213 5,900 -450 Descending Atlanta TRACON
Sun 07:31:58 PM 33.0833 -84.7167 40° Northeast 188 216 5,500 -400 Descending Atlanta TRACON
Sun 07:32:58 PM 33.1333 -84.6833 29° Northeast 187 215 5,100 -250 Descending Atlanta TRACON
Sun 07:33:58 PM 33.1667 -84.6333 51° Northeast 177 204 5,000 -50 Descending Atlanta TRACON
Sun 07:34:58 PM 33.2000 -84.6000 40° Northeast 171 197 5,000 -50 Level Atlanta TRACON
Sun 07:35:58 PM 33.2333 -84.5667 40° Northeast 172 198 4,900 -50 Descending Atlanta TRACON
Sun 07:36:58 PM 33.2833 -84.5333 29° Northeast 173 199 4,900  Level Atlanta TRACON
Sun 07:37:58 PM 33.3167 -84.5000 40° Northeast 171 197 4,900  Level Atlanta TRACON
Sun 07:38:52 PM 33.3500 -84.4667 40° Northeast 170 196 4,900  Level Atlanta TRACON
Sun 07:39:52 PM 33.4000 -84.4500 16° North 168 193 4,900  Level Atlanta TRACON
Sun 07:40:52 PM 33.4333 -84.4333 23° Northeast 171 197 4,900  Level Atlanta TRACON
Sun 07:41:58 PM 33.4833 -84.4167 16° North 171 197 4,900  Level Atlanta TRACON
Sun 07:42:58 PM 33.5333 -84.4000 16° North 166 191 4,900  Level Atlanta TRACON
Sun 07:43:58 PM 33.5833 -84.4000 360° North 162 186 4,900  Level Atlanta TRACON
Sun 07:44:58 PM 33.6167 -84.4167 337° Northwest 169 194 4,900 -100 Level Atlanta TRACON
Sun 07:45:58 PM 33.6667 -84.4167 360° North 165 190 4,700 -300 Descending Atlanta TRACON
Sun 07:46:58 PM 33.7167 -84.3833 29° Northeast 183 211 4,300 -450 Descending Atlanta TRACON
Sun 07:47:58 PM 33.7667 -84.3500 29° Northeast 180 207 3,800 -579 Descending Atlanta TRACON
Sun 07:48:52 PM 33.8000 -84.3333 23° Northeast 184 212 3,200 -632 Descending Atlanta TRACON
Sun 07:49:52 PM 33.8500 -84.3000 29° Northeast 164 189 2,600 -600 Descending Atlanta TRACON
Sun 07:50:52 PM 33.8833 -84.2667 40° Northeast 148 170 2,000 -524 Descending Atlanta TRACON
Sun 07:51:58 PM 33.9000 -84.2833 320° Northwest 103 119 1,500 -455 Descending Atlanta TRACON
Sun 07:53:00 PM 33.8667 -84.3000 90° East  Level FlightAware Approximate
Sun 08:00:00 PM 33.8756 -84.3020 90° East  Level Estimated

Login

Don't have an account? Register now (free) for customized features, flight alerts, and more!